createdAt,value
2023-07-14T00:00:41.623Z,89.35
2023-07-14T00:03:11.318Z,89.50
2023-07-14T00:05:40.397Z,89.81
2023-07-14T00:08:17.463Z,89.73
2023-07-14T00:10:43.971Z,89.59
2023-07-14T00:13:10.383Z,89.83
2023-07-14T00:15:39.297Z,89.78
2023-07-14T00:18:17.395Z,90.43
2023-07-14T00:20:44.016Z,90.53
2023-07-14T00:23:12.951Z,90.03
2023-07-14T00:25:40.157Z,90.13
2023-07-14T00:28:15.613Z,90.22
2023-07-14T00:30:42.069Z,90.18
2023-07-14T00:33:17.766Z,90.09
2023-07-14T00:35:44.880Z,90.18
2023-07-14T00:38:11.397Z,90.01
2023-07-14T00:40:48.865Z,89.86
2023-07-14T00:43:20.425Z,89.49
2023-07-14T00:45:49.122Z,90.04
2023-07-14T00:48:19.255Z,90.35
2023-07-14T00:50:53.800Z,90.18
2023-07-14T00:53:24.554Z,89.77
2023-07-14T00:56:04.248Z,89.72
2023-07-14T00:58:31.643Z,89.58
2023-07-14T01:01:13.954Z,89.58
2023-07-14T01:03:42.922Z,89.33
2023-07-14T01:06:37.548Z,89.54
2023-07-14T01:09:07.119Z,89.26
2023-07-14T01:11:38.842Z,89.41
2023-07-14T01:14:11.298Z,88.80
2023-07-14T01:16:39.716Z,86.17
2023-07-14T01:19:14.090Z,87.74
2023-07-14T01:21:41.971Z,88.16
2023-07-14T01:24:17.182Z,88.36
2023-07-14T01:26:54.253Z,88.40
2023-07-14T01:29:21.267Z,88.42
2023-07-14T01:31:48.919Z,88.35
2023-07-14T01:34:16.880Z,86.58
2023-07-14T01:36:45.084Z,86.53
2023-07-14T01:39:12.745Z,85.87
2023-07-14T01:41:39.649Z,86.60
2023-07-14T01:44:06.862Z,86.38
2023-07-14T01:46:33.366Z,86.17
2023-07-14T01:48:59.831Z,87.25
2023-07-14T01:51:34.542Z,87.43
2023-07-14T01:54:28.110Z,87.04
2023-07-14T01:56:58.951Z,87.72
2023-07-14T01:59:29.769Z,87.09
2023-07-14T02:02:00.734Z,87.52
2023-07-14T02:04:33.872Z,85.91
2023-07-14T02:07:04.714Z,85.46
2023-07-14T02:09:34.051Z,83.79
2023-07-14T02:12:05.445Z,84.80
2023-07-14T02:14:46.651Z,85.24
2023-07-14T02:17:31.755Z,85.61
2023-07-14T02:19:59.671Z,82.94
2023-07-14T02:22:26.831Z,83.47
2023-07-14T02:24:55.315Z,83.25
2023-07-14T02:27:21.821Z,83.46
2023-07-14T02:29:48.268Z,82.84
2023-07-14T02:32:30.889Z,84.43
2023-07-14T02:35:03.241Z,85.14
2023-07-14T02:38:04.203Z,84.23
2023-07-14T02:40:52.058Z,85.28
2023-07-14T02:43:20.310Z,86.46
2023-07-14T02:45:52.833Z,86.22
2023-07-14T02:48:25.894Z,86.57
2023-07-14T02:50:52.271Z,87.16
2023-07-14T02:53:18.913Z,87.59
2023-07-14T02:55:45.531Z,88.48
2023-07-14T02:58:12.105Z,88.60
2023-07-14T03:00:38.641Z,89.31
2023-07-14T03:03:05.218Z,89.41
2023-07-14T03:05:31.791Z,89.61
2023-07-14T03:07:58.300Z,89.78
2023-07-14T03:10:24.936Z,89.70
2023-07-14T03:12:51.481Z,89.65
2023-07-14T03:15:18.042Z,90.16
2023-07-14T03:17:44.581Z,90.54
2023-07-14T03:20:11.672Z,90.74
2023-07-14T03:22:40.126Z,91.12
2023-07-14T03:25:09.323Z,90.85
2023-07-14T03:27:35.814Z,91.41
2023-07-14T03:30:02.348Z,91.37
2023-07-14T03:32:28.816Z,91.87
2023-07-14T03:34:55.273Z,92.15
2023-07-14T03:37:21.705Z,91.73
2023-07-14T03:39:48.152Z,92.01
2023-07-14T03:42:15.234Z,91.81
2023-07-14T03:44:41.717Z,91.80
2023-07-14T03:47:08.219Z,92.43
2023-07-14T03:49:35.776Z,92.33
2023-07-14T03:52:04.098Z,92.61
2023-07-14T03:54:31.314Z,92.84
2023-07-14T03:56:59.677Z,93.05
2023-07-14T03:59:29.253Z,92.58
2023-07-14T04:01:55.792Z,93.07
2023-07-14T04:04:23.549Z,92.99
2023-07-14T04:06:50.813Z,93.32
2023-07-14T04:09:17.316Z,93.09
2023-07-14T04:11:44.333Z,93.37
2023-07-14T04:14:11.270Z,93.45
2023-07-14T04:16:38.073Z,93.35
2023-07-14T04:19:05.070Z,91.91
2023-07-14T04:21:32.150Z,91.60
2023-07-14T04:23:59.344Z,89.41
2023-07-14T04:26:27.843Z,89.73
2023-07-14T04:28:54.557Z,90.77
2023-07-14T04:31:21.319Z,91.44
2023-07-14T04:33:50.345Z,90.97
2023-07-14T04:36:17.335Z,90.90
2023-07-14T04:39:02.456Z,90.20
2023-07-14T04:41:28.885Z,89.96
2023-07-14T04:43:55.347Z,91.74
2023-07-14T04:46:21.806Z,91.22
2023-07-14T04:48:49.451Z,91.33
2023-07-14T04:51:15.873Z,91.30
2023-07-14T04:53:42.319Z,91.20
2023-07-14T04:56:08.710Z,88.99
2023-07-14T04:58:35.136Z,88.80
2023-07-14T05:01:02.669Z,89.17
2023-07-14T05:03:30.454Z,87.60
2023-07-14T05:05:57.070Z,85.87
2023-07-14T05:08:23.536Z,86.49
2023-07-14T05:10:50.282Z,85.71
2023-07-14T05:13:17.080Z,85.54
2023-07-14T05:15:47.911Z,85.14
2023-07-14T05:18:16.182Z,86.41
2023-07-14T05:20:44.938Z,84.95
2023-07-14T05:23:12.364Z,85.42
2023-07-14T05:25:39.390Z,84.01
2023-07-14T05:28:06.673Z,83.75
2023-07-14T05:30:34.168Z,83.13
2023-07-14T05:33:01.237Z,83.00
2023-07-14T05:35:28.144Z,82.94
2023-07-14T05:37:55.042Z,84.24
2023-07-14T05:40:21.556Z,83.79
2023-07-14T05:42:48.231Z,84.71
2023-07-14T05:45:15.046Z,83.76
2023-07-14T05:47:46.789Z,83.64
2023-07-14T05:50:15.985Z,83.85
2023-07-14T05:52:42.759Z,84.37
2023-07-14T05:55:10.132Z,84.60
2023-07-14T05:57:39.183Z,83.31
2023-07-14T06:00:14.085Z,84.62
2023-07-14T06:02:42.292Z,84.03
2023-07-14T06:05:09.765Z,82.61
2023-07-14T06:07:38.102Z,81.66
2023-07-14T06:10:06.048Z,80.90
2023-07-14T06:12:33.411Z,79.84
2023-07-14T06:15:00.198Z,79.34
2023-07-14T06:17:26.829Z,79.51
2023-07-14T06:19:53.339Z,78.79
2023-07-14T06:22:21.609Z,78.23
2023-07-14T06:24:51.560Z,77.09
2023-07-14T06:27:18.299Z,77.06
2023-07-14T06:29:45.086Z,76.20
2023-07-14T06:32:11.500Z,75.94
2023-07-14T06:34:37.951Z,75.06
2023-07-14T06:37:04.874Z,74.94
2023-07-14T06:39:32.066Z,74.96
2023-07-14T06:41:58.526Z,74.94
2023-07-14T06:44:26.590Z,74.18
2023-07-14T06:46:54.299Z,74.63
2023-07-14T06:49:23.034Z,73.92
2023-07-14T06:51:51.528Z,73.60
2023-07-14T06:54:18.201Z,71.79
2023-07-14T06:56:44.728Z,71.54
2023-07-14T06:59:11.367Z,71.64
2023-07-14T07:01:38.168Z,71.36
2023-07-14T07:04:05.381Z,69.11
2023-07-14T07:06:31.946Z,68.55
2023-07-14T07:08:58.381Z,68.07
2023-07-14T07:11:24.799Z,67.94
2023-07-14T07:13:51.299Z,68.10
2023-07-14T07:16:17.915Z,68.58
2023-07-14T07:18:44.681Z,67.47
2023-07-14T07:21:13.953Z,65.88
2023-07-14T07:23:40.646Z,64.61
2023-07-14T07:26:08.079Z,65.38
2023-07-14T07:28:34.569Z,64.16
2023-07-14T07:31:10.101Z,64.28
2023-07-14T07:33:38.207Z,64.63
2023-07-14T07:36:16.256Z,64.40
2023-07-14T07:38:51.672Z,64.04
2023-07-14T07:41:21.714Z,63.11
2023-07-14T07:43:48.305Z,62.68
2023-07-14T07:46:15.727Z,61.64
2023-07-14T07:48:45.207Z,62.32
2023-07-14T07:51:12.423Z,60.98
2023-07-14T07:53:38.908Z,61.42
2023-07-14T07:56:05.469Z,59.77
2023-07-14T07:58:32.025Z,57.85
2023-07-14T08:01:04.691Z,58.21
2023-07-14T08:03:32.459Z,58.71
2023-07-14T08:06:00.948Z,58.86
2023-07-14T08:08:27.672Z,58.37
2023-07-14T08:10:54.747Z,57.73
2023-07-14T08:13:21.569Z,56.60
2023-07-14T08:15:50.161Z,56.53
2023-07-14T08:18:18.154Z,56.71
2023-07-14T08:20:44.651Z,55.93
2023-07-14T08:23:15.069Z,56.89
2023-07-14T08:25:41.918Z,58.07
2023-07-14T08:28:08.862Z,56.58
2023-07-14T08:30:35.807Z,56.69
2023-07-14T08:33:02.419Z,54.91
2023-07-14T08:35:28.866Z,53.57
2023-07-14T08:37:55.533Z,53.40
2023-07-14T08:40:31.038Z,53.63
2023-07-14T08:43:42.291Z,53.71
2023-07-14T08:46:38.372Z,52.16
2023-07-14T08:49:27.598Z,53.02
2023-07-14T08:52:10.175Z,53.86
2023-07-14T08:54:47.487Z,53.56
2023-07-14T08:57:25.959Z,52.86
2023-07-14T08:59:56.788Z,52.30
2023-07-14T09:02:40.635Z,51.35
2023-07-14T09:05:17.921Z,50.00
2023-07-14T09:07:44.366Z,48.87
2023-07-14T09:10:13.177Z,48.34
2023-07-14T09:13:09.332Z,49.36
2023-07-14T09:15:35.864Z,47.56
2023-07-14T09:18:15.513Z,48.82
2023-07-14T09:21:07.727Z,47.78
2023-07-14T09:24:13.096Z,49.20
2023-07-14T09:26:46.854Z,48.54
2023-07-14T09:29:20.579Z,48.00
2023-07-14T09:31:57.713Z,48.52
2023-07-14T09:34:38.640Z,47.65
2023-07-14T09:37:37.696Z,47.68
2023-07-14T09:40:22.383Z,46.55
2023-07-14T09:42:57.555Z,46.83
2023-07-14T09:45:35.390Z,48.01
2023-07-14T09:48:15.161Z,47.79
2023-07-14T09:50:52.757Z,46.90
2023-07-14T09:53:19.343Z,45.18
2023-07-14T09:55:53.793Z,44.36
2023-07-14T09:58:28.386Z,45.44
2023-07-14T10:00:56.636Z,45.94
2023-07-14T10:03:43.680Z,44.41
2023-07-14T10:06:21.455Z,44.52
2023-07-14T10:08:59.334Z,45.06
2023-07-14T10:11:29.709Z,44.16
2023-07-14T10:14:02.057Z,43.42
2023-07-14T10:16:33.170Z,42.69
2023-07-14T10:19:05.848Z,43.43
2023-07-14T10:21:34.667Z,43.74
2023-07-14T10:24:06.466Z,41.84
2023-07-14T10:26:41.585Z,41.94
2023-07-14T10:29:16.725Z,40.84
2023-07-14T10:31:46.623Z,41.02
2023-07-14T10:34:29.370Z,41.71
2023-07-14T10:37:00.492Z,41.61
2023-07-14T10:39:43.509Z,40.97
2023-07-14T10:42:15.951Z,42.23
2023-07-14T10:44:46.743Z,42.55
2023-07-14T10:47:21.246Z,42.88
2023-07-14T10:50:13.494Z,41.45
2023-07-14T10:52:44.901Z,41.46
2023-07-14T10:55:29.374Z,40.66
2023-07-14T10:58:20.552Z,41.26
2023-07-14T11:00:52.600Z,42.15
2023-07-14T11:03:31.018Z,43.90
2023-07-14T11:06:21.529Z,41.57
2023-07-14T11:08:57.676Z,41.74
2023-07-14T11:11:49.748Z,41.59
2023-07-14T11:14:36.626Z,40.82
2023-07-14T11:17:03.660Z,40.34
2023-07-14T11:19:47.018Z,39.94
2023-07-14T11:22:35.760Z,39.72
2023-07-14T11:25:07.623Z,39.16
2023-07-14T11:27:47.064Z,38.48
2023-07-14T11:30:18.920Z,37.05
2023-07-14T11:32:53.383Z,37.04
2023-07-14T11:35:35.208Z,36.65
2023-07-14T11:38:16.877Z,36.75
2023-07-14T11:40:46.973Z,37.04
2023-07-14T11:43:19.135Z,36.72
2023-07-14T11:45:47.192Z,35.64
2023-07-14T11:48:33.022Z,36.72
2023-07-14T11:51:08.772Z,36.21
2023-07-14T11:53:36.334Z,36.46
2023-07-14T11:56:20.085Z,35.46
2023-07-14T11:58:46.574Z,35.88
2023-07-14T12:01:30.143Z,35.88
2023-07-14T12:04:21.099Z,35.49
2023-07-14T12:06:49.952Z,35.30
2023-07-14T12:09:19.458Z,35.72
2023-07-14T12:11:51.660Z,34.47
2023-07-14T12:14:36.144Z,33.84
2023-07-14T12:17:04.038Z,35.32
2023-07-14T12:19:50.400Z,35.00
2023-07-14T12:22:38.317Z,36.08
2023-07-14T12:25:14.757Z,36.19
2023-07-14T12:27:53.187Z,34.70
2023-07-14T12:30:30.602Z,35.04
2023-07-14T12:33:03.136Z,34.86
2023-07-14T12:35:31.808Z,35.95
2023-07-14T12:38:08.801Z,37.64
2023-07-14T12:40:35.500Z,35.83
2023-07-14T12:43:05.994Z,36.39
2023-07-14T12:45:33.164Z,35.72
2023-07-14T12:48:02.811Z,36.07
2023-07-14T12:50:30.423Z,34.99
2023-07-14T12:52:57.417Z,34.68
2023-07-14T12:55:25.803Z,34.73
2023-07-14T12:57:52.952Z,34.59
2023-07-14T13:00:31.690Z,35.08
2023-07-14T13:02:59.344Z,35.16
2023-07-14T13:05:36.689Z,34.69
2023-07-14T13:08:07.507Z,34.36
2023-07-14T13:10:45.037Z,35.09
2023-07-14T13:13:26.392Z,32.66
2023-07-14T13:15:55.295Z,32.32
2023-07-14T13:18:34.301Z,32.77
2023-07-14T13:21:05.131Z,32.71
2023-07-14T13:23:34.358Z,33.91
2023-07-14T13:26:06.845Z,32.53
2023-07-14T13:28:39.962Z,32.91
2023-07-14T13:31:15.573Z,32.48
2023-07-14T13:33:42.498Z,33.06
2023-07-14T13:36:15.890Z,33.67
2023-07-14T13:38:43.828Z,33.39
2023-07-14T13:41:18.433Z,30.73
2023-07-14T13:43:49.815Z,31.29
2023-07-14T13:46:26.232Z,32.44
2023-07-14T13:48:54.919Z,32.90
2023-07-14T13:51:26.068Z,32.54
2023-07-14T13:53:53.173Z,32.42
2023-07-14T13:56:25.189Z,31.77
2023-07-14T13:58:52.794Z,32.61
2023-07-14T14:01:22.785Z,32.19
2023-07-14T14:03:55.371Z,31.97
2023-07-14T14:06:23.750Z,31.58
2023-07-14T14:08:50.294Z,31.56
2023-07-14T14:11:16.675Z,31.18
2023-07-14T14:13:43.106Z,31.40
2023-07-14T14:16:16.751Z,30.73
2023-07-14T14:18:44.193Z,30.52
2023-07-14T14:21:14.396Z,30.59
2023-07-14T14:23:41.019Z,29.74
2023-07-14T14:26:12.191Z,30.29
2023-07-14T14:28:38.802Z,30.84
2023-07-14T14:31:11.277Z,30.85
2023-07-14T14:33:37.941Z,30.54
2023-07-14T14:36:04.502Z,30.75
2023-07-14T14:38:45.195Z,30.01
2023-07-14T14:41:29.154Z,29.69
2023-07-14T14:43:56.329Z,29.34
2023-07-14T14:46:24.085Z,29.45
2023-07-14T14:48:51.176Z,28.98
2023-07-14T14:51:17.669Z,28.42
2023-07-14T14:53:44.159Z,28.70
2023-07-14T14:56:16.847Z,29.39
2023-07-14T14:58:43.962Z,29.58
2023-07-14T15:01:31.256Z,30.03
2023-07-14T15:03:59.344Z,30.21
2023-07-14T15:06:26.009Z,31.96
2023-07-14T15:08:52.718Z,32.37
2023-07-14T15:11:20.225Z,32.50
2023-07-14T15:13:47.270Z,32.85
2023-07-14T15:16:17.312Z,33.79
2023-07-14T15:18:44.288Z,33.32
2023-07-14T15:21:17.668Z,32.84
2023-07-14T15:23:44.255Z,33.01
2023-07-14T15:26:23.354Z,33.54
2023-07-14T15:28:50.997Z,34.17
2023-07-14T15:31:18.802Z,34.64
2023-07-14T15:33:46.110Z,34.67
2023-07-14T15:36:14.386Z,34.01
2023-07-14T15:38:41.337Z,34.50
2023-07-14T15:41:17.815Z,34.90
2023-07-14T15:43:48.615Z,34.84
2023-07-14T15:46:16.032Z,35.08
2023-07-14T15:48:43.957Z,34.78
2023-07-14T15:51:29.189Z,35.45
2023-07-14T15:53:58.508Z,36.38
2023-07-14T15:56:25.853Z,34.73
2023-07-14T15:58:52.629Z,35.44
2023-07-14T16:01:29.226Z,34.73
2023-07-14T16:03:57.506Z,35.14
2023-07-14T16:06:25.357Z,35.64
2023-07-14T16:08:55.293Z,34.92
2023-07-14T16:11:36.221Z,34.68
2023-07-14T16:14:05.633Z,35.69
2023-07-14T16:16:32.432Z,35.41
2023-07-14T16:18:58.954Z,35.83
2023-07-14T16:21:29.437Z,35.43
2023-07-14T16:23:57.590Z,36.19
2023-07-14T16:26:25.350Z,36.14
2023-07-14T16:28:52.515Z,36.70
2023-07-14T16:31:20.186Z,36.42
2023-07-14T16:33:46.965Z,35.32
2023-07-14T16:36:32.099Z,36.03
2023-07-14T16:39:05.526Z,36.11
2023-07-14T16:41:32.763Z,36.13
2023-07-14T16:43:59.363Z,36.49
2023-07-14T16:46:34.178Z,36.41
2023-07-14T16:49:01.044Z,36.64
2023-07-14T16:51:28.555Z,37.01
2023-07-14T16:53:59.803Z,36.30
2023-07-14T16:56:26.275Z,36.68
2023-07-14T16:58:52.759Z,36.63
2023-07-14T17:01:21.498Z,37.02
2023-07-14T17:03:48.904Z,36.92
2023-07-14T17:06:16.502Z,36.65
2023-07-14T17:08:44.597Z,37.06
2023-07-14T17:11:11.573Z,37.19
2023-07-14T17:13:41.395Z,36.70
2023-07-14T17:16:08.047Z,37.24
2023-07-14T17:18:37.278Z,37.23
2023-07-14T17:21:05.611Z,37.36
2023-07-14T17:23:38.520Z,38.16
2023-07-14T17:26:08.077Z,37.19
2023-07-14T17:28:34.754Z,38.02
2023-07-14T17:31:02.197Z,38.15
2023-07-14T17:33:29.939Z,38.34
2023-07-14T17:36:00.207Z,38.13
2023-07-14T17:38:29.993Z,38.26
2023-07-14T17:40:56.703Z,38.02
2023-07-14T17:43:23.523Z,37.82
2023-07-14T17:45:51.689Z,37.76
2023-07-14T17:48:19.030Z,38.10
2023-07-14T17:50:47.749Z,38.34
2023-07-14T17:53:24.491Z,37.96
2023-07-14T17:55:52.606Z,38.70
2023-07-14T17:58:21.780Z,38.62
2023-07-14T18:00:49.936Z,38.67
2023-07-14T18:03:20.933Z,39.47
2023-07-14T18:05:48.594Z,39.51
2023-07-14T18:08:20.450Z,39.62
2023-07-14T18:10:50.388Z,39.85
2023-07-14T18:13:25.951Z,40.16
2023-07-14T18:15:52.780Z,40.11
2023-07-14T18:18:25.095Z,39.82
2023-07-14T18:20:56.780Z,40.76
2023-07-14T18:23:27.161Z,40.85
2023-07-14T18:25:54.024Z,41.61
2023-07-14T18:28:23.188Z,41.77
2023-07-14T18:30:50.861Z,42.42
2023-07-14T18:33:20.298Z,42.18
2023-07-14T18:35:48.600Z,42.40
2023-07-14T18:38:18.573Z,42.71
2023-07-14T18:40:47.795Z,43.40
2023-07-14T18:43:31.806Z,43.61
2023-07-14T18:45:58.352Z,44.55
2023-07-14T18:48:27.114Z,45.04
2023-07-14T18:50:59.314Z,44.67
2023-07-14T18:53:27.802Z,45.69
2023-07-14T18:55:54.470Z,44.69
2023-07-14T18:58:24.080Z,46.59
2023-07-14T19:00:54.979Z,46.32
2023-07-14T19:03:34.111Z,45.70
2023-07-14T19:06:01.861Z,46.04
2023-07-14T19:08:29.165Z,44.04
2023-07-14T19:10:59.177Z,45.23
2023-07-14T19:13:26.789Z,46.62
2023-07-14T19:15:53.340Z,46.38
2023-07-14T19:18:25.825Z,48.02
2023-07-14T19:20:58.892Z,48.58
2023-07-14T19:23:27.340Z,51.09
2023-07-14T19:25:55.442Z,52.36
2023-07-14T19:28:24.109Z,53.48
2023-07-14T19:30:51.437Z,54.29
2023-07-14T19:33:24.519Z,55.13
2023-07-14T19:36:00.050Z,55.16
2023-07-14T19:38:27.928Z,56.14
2023-07-14T19:40:56.026Z,56.82
2023-07-14T19:43:25.720Z,57.08
2023-07-14T19:45:52.985Z,56.56
2023-07-14T19:48:22.366Z,57.30
2023-07-14T19:50:52.227Z,58.01
2023-07-14T19:53:18.792Z,58.52
2023-07-14T19:55:45.355Z,58.26
2023-07-14T19:58:14.322Z,59.11
2023-07-14T20:00:42.938Z,58.25
2023-07-14T20:03:17.473Z,58.38
2023-07-14T20:05:47.642Z,58.65
2023-07-14T20:08:17.628Z,59.74
2023-07-14T20:10:45.255Z,60.30
2023-07-14T20:13:20.523Z,60.25
2023-07-14T20:15:48.322Z,59.69
2023-07-14T20:18:17.350Z,60.30
2023-07-14T20:20:44.170Z,57.23
2023-07-14T20:23:18.458Z,56.60
2023-07-14T20:25:45.385Z,59.73
2023-07-14T20:28:33.175Z,52.87
2023-07-14T20:31:10.052Z,52.49
2023-07-14T20:33:36.697Z,52.42
2023-07-14T20:36:03.265Z,48.99
2023-07-14T20:38:29.999Z,47.23
2023-07-14T20:40:58.973Z,48.17
2023-07-14T20:43:32.465Z,47.16
2023-07-14T20:46:00.016Z,47.04
2023-07-14T20:48:27.650Z,46.94
2023-07-14T20:50:56.164Z,46.82
2023-07-14T20:53:25.921Z,47.00
2023-07-14T20:55:56.208Z,46.41
2023-07-14T20:58:25.494Z,47.08
2023-07-14T21:00:53.380Z,47.08
2023-07-14T21:03:22.614Z,45.92
2023-07-14T21:05:51.916Z,46.06
2023-07-14T21:08:33.866Z,45.97
2023-07-14T21:11:12.116Z,45.58
2023-07-14T21:13:43.565Z,45.26
2023-07-14T21:16:12.757Z,45.29
2023-07-14T21:18:40.598Z,45.31
2023-07-14T21:21:16.741Z,44.91
2023-07-14T21:23:43.235Z,44.86
2023-07-14T21:26:18.248Z,44.90
2023-07-14T21:28:44.674Z,44.75
2023-07-14T21:31:13.057Z,45.13
2023-07-14T21:33:42.202Z,45.14
2023-07-14T21:36:17.757Z,44.65
2023-07-14T21:38:45.106Z,44.64
2023-07-14T21:41:12.504Z,44.28
2023-07-14T21:43:42.569Z,44.33
2023-07-14T21:46:20.650Z,43.79
2023-07-14T21:48:48.204Z,43.83
2023-07-14T21:51:20.944Z,43.94
2023-07-14T21:53:49.962Z,43.96
2023-07-14T21:56:16.974Z,43.71
2023-07-14T21:58:44.096Z,43.44
2023-07-14T22:01:19.765Z,43.67
2023-07-14T22:03:46.220Z,43.62
2023-07-14T22:06:15.063Z,43.60
2023-07-14T22:08:42.386Z,43.23
2023-07-14T22:11:09.906Z,43.40
2023-07-14T22:13:36.650Z,43.72
2023-07-14T22:16:06.012Z,43.31
2023-07-14T22:18:45.193Z,43.50
2023-07-14T22:21:19.418Z,43.45
2023-07-14T22:23:46.282Z,43.29
2023-07-14T22:26:16.082Z,43.15
2023-07-14T22:28:43.070Z,42.94
2023-07-14T22:31:29.604Z,43.14
2023-07-14T22:33:59.827Z,42.55
2023-07-14T22:36:27.494Z,42.69
2023-07-14T22:38:56.627Z,42.77
2023-07-14T22:41:35.037Z,42.31
2023-07-14T22:44:06.546Z,42.56
2023-07-14T22:46:33.201Z,42.41
2023-07-14T22:48:59.999Z,42.26
2023-07-14T22:51:33.080Z,42.42
2023-07-14T22:54:02.541Z,42.35
2023-07-14T22:56:29.035Z,42.09
2023-07-14T22:58:56.565Z,42.32
2023-07-14T23:01:30.413Z,42.12
2023-07-14T23:03:57.360Z,41.84
2023-07-14T23:06:24.994Z,42.01
2023-07-14T23:08:55.379Z,42.03
2023-07-14T23:11:29.654Z,42.01
2023-07-14T23:13:56.356Z,42.06
2023-07-14T23:16:24.636Z,42.51
2023-07-14T23:18:51.351Z,42.49
2023-07-14T23:21:21.560Z,42.82
2023-07-14T23:23:52.814Z,42.63
2023-07-14T23:26:21.525Z,42.47
2023-07-14T23:28:50.214Z,42.32
2023-07-14T23:31:20.063Z,42.75
2023-07-14T23:33:47.523Z,42.41
2023-07-14T23:36:17.406Z,42.47
2023-07-14T23:38:45.223Z,42.73
2023-07-14T23:41:14.904Z,42.94
2023-07-14T23:43:41.740Z,42.81
2023-07-14T23:46:08.843Z,42.84
2023-07-14T23:48:39.655Z,42.65
2023-07-14T23:51:13.947Z,42.87
2023-07-14T23:53:42.444Z,43.05
2023-07-14T23:56:09.005Z,42.93
2023-07-14T23:58:35.600Z,43.00
